createdAt,value
2023-09-14T00:04:24.050Z,4.34
2023-09-14T00:07:03.948Z,4.24
2023-09-14T00:09:37.144Z,4.50
2023-09-14T00:12:12.941Z,4.56
2023-09-14T00:14:46.202Z,4.46
2023-09-14T00:17:20.169Z,4.13
2023-09-14T00:30:31.956Z,4.46
2023-09-14T00:36:51.917Z,4.51
2023-09-14T00:39:25.168Z,4.72
2023-09-14T00:41:58.906Z,4.64
2023-09-14T00:44:32.248Z,4.02
2023-09-14T00:57:22.891Z,3.43
2023-09-14T01:00:02.977Z,3.69
2023-09-14T01:02:36.968Z,3.54
2023-09-14T01:05:12.923Z,3.74
2023-09-14T01:07:46.262Z,3.56
2023-09-14T01:10:19.904Z,3.71
2023-09-14T01:23:42.907Z,3.21
2023-09-14T01:26:19.129Z,3.25
2023-09-14T01:28:52.905Z,3.12
2023-09-14T01:31:26.154Z,2.98
2023-09-14T01:33:59.978Z,3.11
2023-09-14T01:36:43.681Z,2.99
2023-09-14T01:50:07.897Z,2.11
2023-09-14T01:52:47.921Z,2.01
2023-09-14T01:55:21.275Z,2.04
2023-09-14T01:57:54.985Z,2.03
2023-09-14T02:00:28.280Z,2.14
2023-09-14T02:03:01.966Z,2.32
2023-09-14T02:05:37.310Z,2.35
2023-09-14T02:18:25.914Z,3.13
2023-09-14T02:21:08.993Z,3.18
2023-09-14T02:23:42.187Z,3.26
2023-09-14T02:26:15.976Z,3.34
2023-09-14T02:28:49.242Z,3.14
2023-09-14T02:31:22.951Z,2.45
2023-09-14T02:44:35.930Z,0.95
2023-09-14T02:47:09.193Z,0.97
2023-09-14T02:49:42.934Z,0.90
2023-09-14T02:52:16.197Z,0.94
2023-09-14T02:54:49.969Z,1.06
2023-09-14T03:11:26.901Z,1.66
2023-09-14T03:14:06.915Z,1.45
2023-09-14T03:16:40.469Z,1.75
2023-09-14T03:19:13.925Z,1.63
2023-09-14T03:21:47.404Z,1.85
2023-09-14T03:24:21.994Z,1.67
2023-09-14T03:37:33.955Z,1.48
2023-09-14T03:40:09.187Z,1.31
2023-09-14T03:42:43.960Z,1.43
2023-09-14T03:45:17.281Z,1.81
2023-09-14T03:47:50.967Z,2.82
2023-09-14T03:50:24.354Z,3.60
2023-09-14T04:03:51.982Z,5.15
2023-09-14T04:06:33.934Z,5.37
2023-09-14T04:09:07.770Z,5.50
2023-09-14T04:11:41.925Z,5.97
2023-09-14T04:14:15.167Z,5.66
2023-09-14T04:16:49.055Z,5.49
2023-09-14T04:19:24.681Z,5.41
2023-09-14T04:32:13.893Z,2.58
2023-09-14T04:34:55.950Z,2.41
2023-09-14T04:37:29.237Z,2.14
2023-09-14T04:40:02.970Z,2.12
2023-09-14T04:42:36.627Z,2.26
2023-09-14T04:45:11.918Z,2.46
2023-09-14T04:58:26.499Z,2.53
2023-09-14T05:01:00.544Z,2.59
2023-09-14T05:03:34.989Z,2.34
2023-09-14T05:06:09.603Z,2.41
2023-09-14T05:08:42.952Z,2.47
2023-09-14T05:11:16.370Z,2.54
2023-09-14T05:24:06.894Z,3.41
2023-09-14T05:26:47.934Z,3.56
2023-09-14T05:29:21.307Z,3.97
2023-09-14T05:31:58.145Z,4.09
2023-09-14T05:34:31.670Z,4.36
2023-09-14T05:37:04.956Z,4.67
2023-09-14T05:39:40.192Z,4.57
2023-09-14T05:52:28.909Z,4.67
2023-09-14T05:55:11.993Z,4.89
2023-09-14T05:57:46.365Z,4.48
2023-09-14T06:00:20.938Z,4.68
2023-09-14T06:02:56.661Z,4.29
2023-09-14T06:05:30.131Z,4.32
2023-09-14T06:18:42.015Z,3.82
2023-09-14T06:21:15.193Z,3.39
2023-09-14T06:23:48.941Z,3.24
2023-09-14T06:26:22.434Z,3.02
2023-09-14T06:28:57.266Z,2.91
2023-09-14T06:31:33.201Z,2.57
2023-09-14T06:44:23.919Z,1.76
2023-09-14T06:47:03.975Z,1.70
2023-09-14T06:49:37.178Z,1.64
2023-09-14T06:52:12.010Z,1.58
2023-09-14T06:54:46.626Z,1.76
2023-09-14T06:57:19.918Z,1.73
2023-09-14T06:59:55.259Z,1.89
2023-09-14T07:12:43.944Z,2.57
2023-09-14T07:15:25.939Z,3.06
2023-09-14T07:17:59.202Z,3.37
2023-09-14T07:20:32.950Z,4.09
2023-09-14T07:23:06.283Z,4.23
2023-09-14T07:25:39.966Z,4.07
2023-09-14T07:38:52.978Z,4.95
2023-09-14T07:41:26.460Z,4.89
2023-09-14T07:43:59.957Z,5.05
2023-09-14T07:46:33.408Z,4.97
2023-09-14T07:49:07.950Z,5.34
2023-09-14T07:51:41.304Z,5.33
2023-09-14T08:04:36.075Z,5.94
2023-09-14T08:07:15.956Z,5.49
2023-09-14T08:09:49.229Z,6.24
2023-09-14T08:12:22.950Z,6.39
2023-09-14T08:14:56.195Z,6.65
2023-09-14T08:17:30.004Z,6.94
2023-09-14T08:20:07.569Z,6.46
2023-09-14T08:33:02.924Z,7.42
2023-09-14T08:35:45.988Z,7.72
2023-09-14T08:38:21.778Z,7.29
2023-09-14T08:41:02.006Z,7.12
2023-09-14T08:43:36.755Z,7.01
2023-09-14T08:46:13.996Z,7.07
2023-09-14T08:59:28.138Z,8.21
2023-09-14T09:02:02.842Z,8.51
2023-09-14T09:04:37.039Z,9.24
2023-09-14T09:07:10.759Z,9.16
2023-09-14T09:09:44.008Z,9.36
2023-09-14T09:26:20.918Z,7.36
2023-09-14T09:29:00.951Z,7.39
2023-09-14T09:31:43.058Z,7.81
2023-09-14T09:34:30.968Z,8.05
2023-09-14T09:37:04.738Z,8.03
2023-09-14T09:39:42.980Z,7.84
2023-09-14T09:52:56.242Z,6.72
2023-09-14T09:55:30.518Z,6.54
2023-09-14T09:58:05.963Z,6.52
2023-09-14T10:00:39.231Z,6.10
2023-09-14T10:03:14.028Z,5.64
2023-09-14T10:05:47.530Z,5.88
2023-09-14T10:18:44.976Z,5.65
2023-09-14T10:21:27.024Z,5.29
2023-09-14T10:24:01.938Z,5.35
2023-09-14T10:26:37.956Z,5.37
2023-09-14T10:29:11.245Z,5.23
2023-09-14T10:32:23.790Z,5.15
2023-09-14T10:45:55.005Z,4.92
2023-09-14T10:48:30.682Z,4.82
2023-09-14T10:51:05.982Z,4.69
2023-09-14T10:53:41.364Z,4.62
2023-09-14T10:56:26.957Z,4.49
2023-09-14T10:59:05.467Z,4.61
2023-09-14T11:01:55.713Z,4.57
2023-09-14T11:11:57.539Z,4.56
2023-09-14T11:14:40.037Z,4.89
2023-09-14T11:17:21.943Z,4.86
2023-09-14T11:20:02.391Z,5.00
2023-09-14T11:22:38.275Z,4.95
2023-09-14T11:25:28.226Z,4.58
2023-09-14T11:38:43.587Z,4.53
2023-09-14T11:41:38.781Z,4.31
2023-09-14T11:47:03.544Z,4.27
2023-09-14T11:49:48.976Z,4.25
2023-09-14T12:06:31.958Z,3.85
2023-09-14T12:09:30.584Z,3.75
2023-09-14T12:12:06.823Z,3.65
2023-09-14T12:14:45.257Z,3.65
2023-09-14T12:17:21.491Z,3.44
2023-09-14T12:20:01.893Z,3.31
2023-09-14T12:33:15.645Z,3.26
2023-09-14T12:35:49.342Z,2.98
2023-09-14T12:38:25.124Z,3.09
2023-09-14T12:41:01.315Z,2.62
2023-09-14T12:43:36.018Z,2.77
2023-09-14T12:46:09.500Z,2.84
2023-09-14T12:58:59.942Z,2.88
2023-09-14T13:01:40.993Z,2.65
2023-09-14T13:04:15.452Z,2.73
2023-09-14T13:06:49.985Z,2.87
2023-09-14T13:09:24.544Z,2.87
2023-09-14T13:12:00.130Z,2.69
2023-09-14T13:25:38.970Z,2.72
2023-09-14T13:28:12.370Z,2.55
2023-09-14T13:30:46.017Z,2.39
2023-09-14T13:33:19.194Z,2.59
2023-09-14T13:35:53.971Z,2.37
2023-09-14T13:38:29.687Z,2.67
2023-09-14T13:41:04.976Z,2.62
2023-09-14T13:54:14.998Z,2.62
2023-09-14T13:56:50.184Z,2.58
2023-09-14T13:59:23.973Z,2.78
2023-09-14T14:01:57.383Z,2.87
2023-09-14T14:04:31.229Z,2.57
2023-09-14T14:07:04.670Z,2.76
2023-09-14T14:19:54.949Z,2.61
2023-09-14T14:22:34.997Z,2.91
2023-09-14T14:25:09.103Z,2.93
2023-09-14T14:27:44.042Z,2.89
2023-09-14T14:30:17.217Z,2.87
2023-09-14T14:46:33.021Z,2.97
2023-09-14T14:49:06.579Z,2.97
2023-09-14T14:51:40.014Z,2.82
2023-09-14T14:54:13.347Z,2.99
2023-09-14T14:56:55.008Z,2.85
2023-09-14T14:59:28.195Z,3.03
2023-09-14T15:02:04.051Z,2.80
2023-09-14T15:12:35.001Z,2.76
2023-09-14T15:15:16.979Z,2.81
2023-09-14T15:17:52.467Z,2.75
2023-09-14T15:20:25.989Z,2.65
2023-09-14T15:22:59.212Z,2.71
2023-09-14T15:25:32.989Z,2.84
2023-09-14T15:39:22.996Z,2.39
2023-09-14T15:41:56.215Z,2.45
2023-09-14T15:44:29.961Z,2.47
2023-09-14T15:47:03.880Z,2.47
2023-09-14T15:49:36.982Z,2.33
2023-09-14T15:52:10.492Z,2.33
2023-09-14T15:54:45.984Z,2.28
2023-09-14T15:57:19.221Z,2.50
2023-09-14T16:06:43.015Z,2.31
2023-09-14T16:09:16.278Z,2.28
2023-09-14T16:11:52.462Z,2.30
2023-09-14T16:14:26.254Z,2.33
2023-09-14T16:16:59.968Z,2.16
2023-09-14T16:19:33.295Z,2.42
2023-09-14T16:22:07.010Z,2.44
2023-09-14T16:37:49.364Z,2.27
2023-09-14T16:40:16.528Z,2.20
2023-09-14T16:42:57.041Z,2.33
2023-09-14T16:45:30.234Z,2.37
2023-09-14T17:01:46.017Z,2.26
2023-09-14T17:04:19.219Z,2.23
2023-09-14T17:06:54.052Z,2.52
2023-09-14T17:09:27.436Z,2.23
2023-09-14T17:12:01.506Z,2.22
2023-09-14T17:14:35.210Z,2.38
2023-09-14T17:17:11.021Z,2.33
2023-09-14T17:26:55.985Z,2.36
2023-09-14T17:29:36.010Z,2.53
2023-09-14T17:32:11.830Z,2.37
2023-09-14T17:34:44.976Z,2.37
2023-09-14T17:37:18.289Z,2.53
2023-09-14T17:39:52.001Z,2.35
2023-09-14T17:42:25.347Z,2.36
2023-09-14T17:55:15.988Z,2.30
2023-09-14T17:57:56.084Z,2.28
2023-09-14T18:00:29.235Z,2.25
2023-09-14T18:03:03.037Z,2.22
2023-09-14T18:05:36.364Z,2.31
2023-09-14T18:21:52.023Z,2.51
2023-09-14T18:24:25.225Z,2.45
2023-09-14T18:26:59.000Z,2.38
2023-09-14T18:29:33.830Z,2.39
2023-09-14T18:32:06.985Z,2.46
2023-09-14T18:34:40.469Z,2.28
2023-09-14T18:37:15.984Z,2.47
2023-09-14T18:47:00.995Z,2.67
2023-09-14T18:49:40.992Z,2.78
2023-09-14T18:52:22.520Z,3.17
2023-09-14T18:55:03.012Z,3.08
2023-09-14T18:57:36.605Z,2.86
2023-09-14T19:00:12.025Z,2.67
2023-09-14T19:13:27.042Z,3.46
2023-09-14T19:16:00.393Z,3.26
2023-09-14T19:18:34.500Z,3.06
2023-09-14T19:21:08.422Z,2.97
2023-09-14T19:23:42.011Z,3.21
2023-09-14T19:26:15.323Z,2.95
2023-09-14T19:42:30.990Z,2.99
2023-09-14T19:45:06.188Z,2.87
2023-09-14T19:47:40.031Z,3.12
2023-09-14T19:50:13.508Z,2.85
2023-09-14T19:52:47.002Z,3.01
2023-09-14T19:55:20.273Z,2.93
2023-09-14T20:08:15.967Z,3.06
2023-09-14T20:10:56.008Z,2.82
2023-09-14T20:13:38.517Z,2.78
2023-09-14T20:16:19.128Z,2.59
2023-09-14T20:18:53.732Z,2.95
2023-09-14T20:21:27.239Z,2.72
2023-09-14T20:34:39.062Z,2.59
2023-09-14T20:37:12.258Z,2.65
2023-09-14T20:39:46.022Z,2.78
2023-09-14T20:42:19.467Z,2.78
2023-09-14T20:44:53.051Z,2.67
2023-09-14T20:47:26.252Z,2.95
2023-09-14T21:00:28.999Z,2.80
2023-09-14T21:03:09.096Z,2.75
2023-09-14T21:05:43.233Z,3.17
2023-09-14T21:08:16.992Z,3.24
2023-09-14T21:10:50.242Z,3.22
2023-09-14T21:13:30.011Z,3.18
2023-09-14T21:16:05.627Z,3.03
2023-09-14T21:28:53.967Z,3.17
2023-09-14T21:31:36.069Z,3.43
2023-09-14T21:34:09.317Z,3.44
2023-09-14T21:36:43.060Z,3.36
2023-09-14T21:39:16.262Z,3.54
2023-09-14T21:41:50.007Z,3.44
2023-09-14T21:55:02.038Z,2.71
2023-09-14T21:57:35.237Z,2.67
2023-09-14T22:00:09.993Z,2.67
2023-09-14T22:02:43.358Z,2.88
2023-09-14T22:05:17.029Z,3.17
2023-09-14T22:21:53.973Z,3.12
2023-09-14T22:24:34.036Z,3.17
2023-09-14T22:27:07.246Z,3.36
2023-09-14T22:29:42.307Z,3.05
2023-09-14T22:32:16.264Z,3.35
2023-09-14T22:34:50.018Z,3.16
2023-09-14T22:37:32.194Z,3.24
2023-09-14T22:47:26.990Z,3.61
2023-09-14T22:50:00.262Z,3.53
2023-09-14T22:52:36.041Z,3.79
2023-09-14T22:55:10.160Z,3.58
2023-09-14T22:57:44.010Z,3.74
2023-09-14T23:00:17.421Z,3.82
2023-09-14T23:16:33.081Z,4.20
2023-09-14T23:19:06.340Z,4.01
2023-09-14T23:21:41.021Z,3.77
2023-09-14T23:24:14.635Z,3.79
2023-09-14T23:26:48.007Z,3.83
2023-09-14T23:43:24.977Z,4.07
2023-09-14T23:46:06.092Z,3.82
2023-09-14T23:48:39.450Z,4.02
2023-09-14T23:51:12.997Z,3.78
2023-09-14T23:53:46.253Z,3.86
2023-09-14T23:56:20.018Z,3.79
